Time;durP1;ratioP1;P1;durP2;ratioP2;P2;SDS_P1;SDS_P2;PMS_P1;PMS_P2;Temp;Humidity;BMP_temperature;BMP_pressure;BME280_temperature;BME280_humidity;BME280_pressure;Samples;Min_cycle;Max_cycle;Signal;HPM_P1;HPM_P2
2023/03/20 00:01:17;;;;;;;;;;;10.00;99.90;;;;;;4955547;28;19933;-73
2023/03/20 00:03:45;;;;;;;;;;;10.50;99.90;;;;;;4952587;28;19933;-74
2023/03/20 00:06:14;;;;;;;;;;;10.00;99.90;;;;;;4949809;29;19926;-73
2023/03/20 00:08:41;;;;;;;;;;;9.90;99.90;;;;;;4932054;29;19927;-74
2023/03/20 00:11:11;;;;;;;;;;;9.90;99.90;;;;;;4928283;29;19922;-73
2023/03/20 00:13:38;;;;;;;;;;;9.90;99.90;;;;;;4947101;29;19981;-73
2023/03/20 00:16:05;;;;;;;;;;;9.90;99.90;;;;;;4953765;28;20417;-74
2023/03/20 00:18:32;;;;;;;;;;;9.90;99.90;;;;;;4946748;28;20296;-74
2023/03/20 00:21:00;;;;;;;;;;;9.90;99.90;;;;;;4961250;28;20299;-75
2023/03/20 00:23:27;;;;;;;;;;;9.90;99.90;;;;;;4945029;28;19932;-73
2023/03/20 00:25:54;;;;;;;;;;;10.40;99.90;;;;;;4950408;28;20403;-74
2023/03/20 00:28:29;;;;;;;;;;;9.90;99.90;;;;;;4948772;28;19926;-75
2023/03/20 00:30:56;;;;;;;;;;;9.80;99.90;;;;;;4951798;28;20178;-75
2023/03/20 00:33:23;;;;;;;;;;;9.80;99.90;;;;;;4930554;29;19926;-74
2023/03/20 00:35:50;;;;;;;;;;;9.70;99.90;;;;;;4934847;28;19953;-74
2023/03/20 00:38:18;;;;;;;;;;;9.70;99.90;;;;;;4936724;28;19952;-74
2023/03/20 00:40:45;;;;;;;;;;;9.70;99.90;;;;;;4949468;29;19926;-74
2023/03/20 00:43:14;;;;;;;;;;;9.60;99.90;;;;;;4948298;29;19934;-74
2023/03/20 00:45:42;;;;;;;;;;;9.70;99.90;;;;;;4948402;28;20024;-74
2023/03/20 00:48:11;;;;;;;;;;;9.60;99.90;;;;;;4931207;29;19965;-74
2023/03/20 00:50:38;;;;;;;;;;;9.60;99.90;;;;;;4949225;28;20277;-75
2023/03/20 00:53:06;;;;;;;;;;;9.60;99.90;;;;;;4928973;29;20049;-73
2023/03/20 00:55:34;;;;;;;;;;;9.60;99.90;;;;;;4931940;29;19926;-74
2023/03/20 00:58:01;;;;;;;;;;;9.60;99.90;;;;;;4947926;28;19922;-73
2023/03/20 01:00:35;;;;;;;;;;;9.60;99.90;;;;;;4933571;29;20376;-74
2023/03/20 01:03:04;;;;;;;;;;;9.60;99.90;;;;;;4950724;28;19929;-74
2023/03/20 01:05:31;;;;;;;;;;;9.50;99.90;;;;;;4952345;28;19930;-73
2023/03/20 01:07:58;;;;;;;;;;;9.50;99.90;;;;;;4950578;28;19994;-73
2023/03/20 01:10:27;;;;;;;;;;;9.60;99.90;;;;;;4956643;28;19926;-75
2023/03/20 01:12:57;;;;;;;;;;;9.60;99.90;;;;;;4933738;29;19923;-73
2023/03/20 01:15:27;;;;;;;;;;;9.30;99.90;;;;;;4941781;29;19937;-74
2023/03/20 01:17:54;;;;;;;;;;;9.60;99.90;;;;;;4916575;29;19927;-74
2023/03/20 01:20:21;;;;;;;;;;;9.60;99.90;;;;;;4951350;29;19926;-75
2023/03/20 01:22:49;;;;;;;;;;;9.60;99.90;;;;;;4916605;29;19961;-74
2023/03/20 01:25:16;;;;;;;;;;;9.50;99.90;;;;;;4951390;29;20421;-73
2023/03/20 01:27:43;;;;;;;;;;;9.60;99.90;;;;;;4933335;28;20364;-72
2023/03/20 01:30:16;;;;;;;;;;;9.50;99.90;;;;;;4950906;29;19942;-73
2023/03/20 01:32:45;;;;;;;;;;;9.50;99.90;;;;;;4954144;28;19930;-75
2023/03/20 01:35:15;;;;;;;;;;;9.50;99.90;;;;;;4935960;29;19922;-73
2023/03/20 01:37:42;;;;;;;;;;;9.50;99.90;;;;;;4938218;28;19933;-73
2023/03/20 01:40:16;;;;;;;;;;;9.50;99.90;;;;;;4936241;29;19930;-73
2023/03/20 01:42:43;;;;;;;;;;;9.50;99.90;;;;;;4940239;29;20039;-73
2023/03/20 01:45:15;;;;;;;;;;;9.50;99.90;;;;;;4941421;29;19926;-73
2023/03/20 01:47:44;;;;;;;;;;;9.50;99.90;;;;;;4929331;28;19922;-73
2023/03/20 01:50:28;;;;;;;;;;;9.40;99.90;;;;;;4940512;29;19922;-73
2023/03/20 01:53:03;;;;;;;;;;;9.40;99.90;;;;;;4947369;28;19926;-73
2023/03/20 01:55:31;;;;;;;;;;;9.40;99.90;;;;;;4937098;28;19970;-73
2023/03/20 01:58:02;;;;;;;;;;;9.30;99.90;;;;;;4935201;29;20078;-73
2023/03/20 02:00:29;;;;;;;;;;;10.40;99.90;;;;;;4939088;28;19931;-73
2023/03/20 02:02:57;;;;;;;;;;;9.30;99.90;;;;;;4928847;29;19931;-73
2023/03/20 02:05:55;;;;;;;;;;;10.20;99.90;;;;;;4876825;29;19923;-73
2023/03/20 02:08:24;;;;;;;;;;;9.20;99.90;;;;;;4915084;29;19986;-73
2023/03/20 02:10:52;;;;;;;;;;;9.20;99.90;;;;;;4949427;29;19932;-73
2023/03/20 02:13:26;;;;;;;;;;;9.10;99.90;;;;;;4915358;29;19935;-75
2023/03/20 02:15:55;;;;;;;;;;;9.10;99.90;;;;;;4936319;28;19930;-74
2023/03/20 02:18:38;;;;;;;;;;;9.00;99.90;;;;;;4935124;28;20063;-74
2023/03/20 02:21:18;;;;;;;;;;;9.10;99.90;;;;;;4934281;29;20022;-74
2023/03/20 02:23:54;;;;;;;;;;;8.90;99.90;;;;;;4948648;29;19922;-74
2023/03/20 02:26:47;;;;;;;;;;;9.00;99.90;;;;;;4935008;29;19926;-74
2023/03/20 02:29:44;;;;;;;;;;;8.90;99.90;;;;;;4934255;29;19926;-73
2023/03/20 02:32:30;;;;;;;;;;;8.90;99.90;;;;;;4931293;29;20353;-73
2023/03/20 02:35:06;;;;;;;;;;;8.90;99.90;;;;;;4928359;29;19950;-73
2023/03/20 02:37:46;;;;;;;;;;;8.90;99.90;;;;;;4934369;28;20459;-73
2023/03/20 02:40:18;;;;;;;;;;;8.90;99.90;;;;;;4942154;28;20005;-73
2023/03/20 02:42:48;;;;;;;;;;;8.90;99.90;;;;;;4938609;29;19935;-73
2023/03/20 02:45:17;;;;;;;;;;;8.90;99.90;;;;;;4937652;29;20348;-73
2023/03/20 02:47:49;;;;;;;;;;;9.00;99.90;;;;;;4937213;29;19923;-73
2023/03/20 02:50:21;;;;;;;;;;;9.00;99.90;;;;;;4935689;29;19933;-73
2023/03/20 02:52:56;;;;;;;;;;;9.10;99.90;;;;;;4933307;29;19949;-74
2023/03/20 02:55:26;;;;;;;;;;;9.10;99.90;;;;;;4938028;29;20285;-74
2023/03/20 02:58:03;;;;;;;;;;;9.10;99.90;;;;;;4937876;29;19926;-73
2023/03/20 03:00:34;;;;;;;;;;;9.20;99.90;;;;;;4941474;28;19933;-74
2023/03/20 03:03:05;;;;;;;;;;;9.20;99.90;;;;;;4936647;28;20383;-73
2023/03/20 03:05:35;;;;;;;;;;;9.20;99.90;;;;;;4922019;29;19933;-73
2023/03/20 03:08:04;;;;;;;;;;;9.20;99.90;;;;;;4935040;29;19930;-73
2023/03/20 03:10:36;;;;;;;;;;;9.20;99.90;;;;;;4933325;29;20404;-72
2023/03/20 03:13:05;;;;;;;;;;;10.70;99.90;;;;;;4950429;29;19934;-73
2023/03/20 03:15:33;;;;;;;;;;;9.20;99.90;;;;;;4932834;29;19973;-72
2023/03/20 03:18:02;;;;;;;;;;;9.30;99.90;;;;;;4932094;29;19981;-73
2023/03/20 03:20:29;;;;;;;;;;;9.30;99.90;;;;;;4931076;28;19923;-73
2023/03/20 03:22:57;;;;;;;;;;;9.30;99.90;;;;;;4934412;28;20333;-73
2023/03/20 03:25:27;;;;;;;;;;;9.30;99.90;;;;;;4936013;29;19926;-73
2023/03/20 03:27:56;;;;;;;;;;;9.30;99.90;;;;;;4936129;28;19926;-73
2023/03/20 03:30:26;;;;;;;;;;;9.30;99.90;;;;;;4931474;28;19922;-73
2023/03/20 03:33:02;;;;;;;;;;;9.30;99.90;;;;;;4957294;28;19926;-74
2023/03/20 03:35:29;;;;;;;;;;;9.30;99.90;;;;;;4953441;28;19929;-73
2023/03/20 03:37:58;;;;;;;;;;;9.30;99.90;;;;;;4933382;29;19926;-73
2023/03/20 03:40:31;;;;;;;;;;;9.30;99.90;;;;;;4949742;29;19922;-74
2023/03/20 03:43:02;;;;;;;;;;;9.30;99.90;;;;;;4948769;28;20509;-74
2023/03/20 03:45:31;;;;;;;;;;;9.30;99.90;;;;;;4932684;29;19943;-73
2023/03/20 03:48:01;;;;;;;;;;;9.30;99.90;;;;;;4932824;29;19946;-74
2023/03/20 03:50:30;;;;;;;;;;;9.30;99.90;;;;;;4937175;28;20057;-73
2023/03/20 03:53:02;;;;;;;;;;;9.30;99.90;;;;;;4931822;29;19965;-73
2023/03/20 03:55:33;;;;;;;;;;;9.30;99.90;;;;;;4932331;29;20343;-74
2023/03/20 03:58:08;;;;;;;;;;;9.30;99.90;;;;;;4931076;29;19933;-76
2023/03/20 04:00:35;;;;;;;;;;;9.20;99.90;;;;;;4954426;28;19966;-74
2023/03/20 04:03:04;;;;;;;;;;;9.20;99.90;;;;;;4930302;29;19926;-74
2023/03/20 04:05:33;;;;;;;;;;;9.20;99.90;;;;;;4931661;29;19926;-74
2023/03/20 04:08:01;;;;;;;;;;;9.10;99.90;;;;;;4950965;29;20487;-73
2023/03/20 04:10:28;;;;;;;;;;;9.20;99.90;;;;;;4933240;29;19930;-74
2023/03/20 04:12:56;;;;;;;;;;;9.10;99.90;;;;;;4948128;29;19933;-73
2023/03/20 04:15:23;;;;;;;;;;;9.10;99.90;;;;;;4932180;29;19927;-73
2023/03/20 04:17:49;;;;;;;;;;;9.10;99.90;;;;;;4931386;29;19923;-75
2023/03/20 04:20:17;;;;;;;;;;;9.10;99.90;;;;;;4931295;29;19933;-73
2023/03/20 04:22:46;;;;;;;;;;;9.10;99.90;;;;;;4929065;29;19930;-75
2023/03/20 04:25:16;;;;;;;;;;;9.00;99.90;;;;;;5431701;23;19929;-74
2023/03/20 04:27:42;;;;;;;;;;;9.00;99.90;;;;;;4976852;28;19926;-74
2023/03/20 04:30:19;;;;;;;;;;;9.00;99.90;;;;;;4968260;28;19930;-75
2023/03/20 04:33:04;;;;;;;;;;;9.00;99.90;;;;;;4964399;28;19933;-74
2023/03/20 04:35:40;;;;;;;;;;;9.00;99.90;;;;;;5458837;23;19931;-75
2023/03/20 04:38:12;;;;;;;;;;;9.00;99.90;;;;;;4928518;29;19929;-74
2023/03/20 04:40:39;;;;;;;;;;;8.90;99.90;;;;;;4931479;29;19981;-74
2023/03/20 04:43:06;;;;;;;;;;;8.90;99.90;;;;;;4932488;29;20364;-74
2023/03/20 04:45:35;;;;;;;;;;;8.90;99.90;;;;;;4932089;29;20420;-73
2023/03/20 04:48:02;;;;;;;;;;;8.90;99.90;;;;;;4933397;29;19934;-73
2023/03/20 04:50:30;;;;;;;;;;;8.80;99.90;;;;;;4932273;29;20021;-74
2023/03/20 04:52:56;;;;;;;;;;;8.70;99.90;;;;;;4932775;29;19973;-75
2023/03/20 04:55:23;;;;;;;;;;;8.60;99.90;;;;;;5440329;23;20407;-73
2023/03/20 04:57:51;;;;;;;;;;;8.60;99.90;;;;;;4941911;29;19933;-74
2023/03/20 05:00:18;;;;;;;;;;;8.60;99.90;;;;;;4938091;29;19951;-72
2023/03/20 05:02:46;;;;;;;;;;;8.40;99.90;;;;;;4934455;29;19926;-73
2023/03/20 05:05:14;;;;;;;;;;;8.40;99.90;;;;;;4938856;29;20017;-73
2023/03/20 05:07:46;;;;;;;;;;;8.40;99.90;;;;;;4934792;29;19930;-74
2023/03/20 05:10:20;;;;;;;;;;;8.30;99.90;;;;;;4932740;29;19962;-76
2023/03/20 05:12:58;;;;;;;;;;;8.20;99.90;;;;;;4932675;29;20392;-73
2023/03/20 05:15:38;;;;;;;;;;;8.10;99.90;;;;;;4931439;29;19933;-74
2023/03/20 05:18:17;;;;;;;;;;;8.10;99.90;;;;;;4932003;29;19981;-73
2023/03/20 05:21:07;;;;;;;;;;;8.00;99.90;;;;;;4932809;29;19934;-74
2023/03/20 05:23:52;;;;;;;;;;;7.90;99.90;;;;;;4940195;29;20009;-75
2023/03/20 05:26:37;;;;;;;;;;;7.90;99.90;;;;;;4928697;29;19978;-75
2023/03/20 05:29:22;;;;;;;;;;;7.90;99.90;;;;;;4933339;29;20022;-74
2023/03/20 05:32:09;;;;;;;;;;;7.80;99.90;;;;;;4928078;29;19934;-73
2023/03/20 05:35:09;;;;;;;;;;;7.60;99.90;;;;;;4922835;29;19954;-74
2023/03/20 05:37:47;;;;;;;;;;;7.80;99.90;;;;;;4934942;29;19972;-75
2023/03/20 05:40:28;;;;;;;;;;;7.90;99.90;;;;;;4931451;29;19926;-75
2023/03/20 05:43:15;;;;;;;;;;;7.80;99.90;;;;;;4919210;29;20362;-73
2023/03/20 05:45:54;;;;;;;;;;;7.80;99.90;;;;;;4932541;29;19933;-74
2023/03/20 05:48:35;;;;;;;;;;;7.80;99.90;;;;;;4951258;28;19927;-74
2023/03/20 05:51:22;;;;;;;;;;;7.80;99.90;;;;;;4931625;29;19981;-74
2023/03/20 05:53:56;;;;;;;;;;;7.80;99.90;;;;;;4931964;29;19927;-73
2023/03/20 05:56:50;;;;;;;;;;;7.80;99.90;;;;;;4932603;29;19923;-73
2023/03/20 05:59:35;;;;;;;;;;;7.90;99.90;;;;;;4929112;29;19926;-73
2023/03/20 06:02:37;;;;;;;;;;;7.90;99.90;;;;;;4926422;29;20093;-73
2023/03/20 06:05:17;;;;;;;;;;;7.90;99.90;;;;;;4941664;28;19939;-73
2023/03/20 06:07:51;;;;;;;;;;;7.90;99.90;;;;;;4957381;28;20392;-73
2023/03/20 06:10:19;;;;;;;;;;;8.00;99.90;;;;;;4929246;28;20020;-74
2023/03/20 06:12:47;;;;;;;;;;;8.00;99.90;;;;;;4937407;29;19926;-73
2023/03/20 06:15:14;;;;;;;;;;;8.00;99.90;;;;;;4935736;29;19927;-74
2023/03/20 06:17:46;;;;;;;;;;;8.10;99.90;;;;;;4930577;29;19996;-74
2023/03/20 06:20:15;;;;;;;;;;;8.10;99.90;;;;;;4930869;29;19934;-74
2023/03/20 06:22:41;;;;;;;;;;;8.10;99.90;;;;;;4930780;29;19935;-74
2023/03/20 06:25:10;;;;;;;;;;;8.10;99.90;;;;;;4932113;29;19926;-74
2023/03/20 06:27:41;;;;;;;;;;;8.20;99.90;;;;;;4933978;29;20052;-73
2023/03/20 06:30:09;;;;;;;;;;;8.20;99.90;;;;;;4931950;29;20373;-73
2023/03/20 06:32:36;;;;;;;;;;;8.30;99.90;;;;;;4934993;29;19927;-75
2023/03/20 06:35:06;;;;;;;;;;;8.30;99.90;;;;;;4933692;29;20256;-75
2023/03/20 06:37:33;;;;;;;;;;;8.30;99.90;;;;;;4929086;29;20716;-74
2023/03/20 06:40:06;;;;;;;;;;;8.30;99.90;;;;;;4931234;29;20014;-74
2023/03/20 06:42:35;;;;;;;;;;;8.30;99.90;;;;;;4936956;29;19926;-74
2023/03/20 06:45:04;;;;;;;;;;;8.40;99.90;;;;;;4927620;28;19927;-74
2023/03/20 06:48:05;;;;;;;;;;;8.40;99.90;;;;;;4927740;29;19926;-73
2023/03/20 06:50:33;;;;;;;;;;;8.50;99.90;;;;;;4933916;29;19990;-74
2023/03/20 06:53:00;;;;;;;;;;;8.70;99.90;;;;;;4936191;28;20042;-74
2023/03/20 06:55:39;;;;;;;;;;;8.90;99.90;;;;;;5444878;23;20031;-74
2023/03/20 06:58:07;;;;;;;;;;;8.90;99.90;;;;;;4924508;29;19974;-74
2023/03/20 07:00:36;;;;;;;;;;;9.10;99.90;;;;;;4929991;29;19926;-74
2023/03/20 07:03:05;;;;;;;;;;;9.20;99.90;;;;;;4939015;28;19933;-74
2023/03/20 07:05:32;;;;;;;;;;;9.30;99.90;;;;;;4933014;28;19982;-73
2023/03/20 07:08:01;;;;;;;;;;;9.50;99.90;;;;;;4946609;23;19963;-83
2023/03/20 07:10:28;;;;;;;;;;;9.60;99.90;;;;;;4942271;29;20040;-77
2023/03/20 07:12:57;;;;;;;;;;;9.70;99.90;;;;;;4944678;29;20390;-84
2023/03/20 07:15:26;;;;;;;;;;;9.70;99.90;;;;;;4947332;28;19981;-83
2023/03/20 07:17:53;;;;;;;;;;;9.70;99.90;;;;;;4942608;29;19982;-82
2023/03/20 07:20:21;;;;;;;;;;;9.80;99.90;;;;;;4943560;29;19923;-83
2023/03/20 07:22:49;;;;;;;;;;;9.80;99.90;;;;;;4937712;29;19963;-82
2023/03/20 07:25:19;;;;;;;;;;;9.80;99.90;;;;;;4920718;29;19931;-77
2023/03/20 07:27:49;;;;;;;;;;;9.80;99.90;;;;;;4917007;29;20390;-77
2023/03/20 07:30:18;;;;;;;;;;;9.90;99.90;;;;;;4917356;29;19987;-77
2023/03/20 07:32:48;;;;;;;;;;;9.90;99.90;;;;;;4916535;29;20018;-78
2023/03/20 07:35:15;;;;;;;;;;;10.10;99.90;;;;;;4916186;29;19975;-77
2023/03/20 07:37:44;;;;;;;;;;;10.00;99.90;;;;;;4917291;29;19994;-81
2023/03/20 07:40:11;;;;;;;;;;;10.30;99.90;;;;;;4937585;29;20370;-80
2023/03/20 07:42:57;;;;;;;;;;;10.30;99.90;;;;;;4939262;29;19923;-80
2023/03/20 07:46:02;;;;;;;;;;;10.50;99.90;;;;;;4940103;29;19927;-80
2023/03/20 07:48:31;;;;;;;;;;;10.60;99.90;;;;;;4937683;29;19922;-80
2023/03/20 07:50:58;;;;;;;;;;;10.70;99.90;;;;;;4937972;29;19962;-80
2023/03/20 07:53:25;;;;;;;;;;;10.80;99.90;;;;;;4928211;29;19938;-84
2023/03/20 07:55:52;;;;;;;;;;;10.90;99.90;;;;;;4921635;29;19927;-81
2023/03/20 07:58:19;;;;;;;;;;;10.90;99.90;;;;;;4940254;29;19930;-80
2023/03/20 08:00:47;;;;;;;;;;;10.90;99.90;;;;;;4941595;29;20021;-84
2023/03/20 08:03:14;;;;;;;;;;;11.10;99.90;;;;;;4939515;29;19923;-80
2023/03/20 08:05:43;;;;;;;;;;;11.20;99.90;;;;;;4937808;29;20278;-79
2023/03/20 08:08:14;;;;;;;;;;;11.20;99.90;;;;;;4938476;29;20362;-80
2023/03/20 08:10:42;;;;;;;;;;;11.40;99.90;;;;;;4941944;29;19926;-81
2023/03/20 08:13:10;;;;;;;;;;;11.50;99.90;;;;;;4939213;29;19981;-79
2023/03/20 08:15:37;;;;;;;;;;;11.70;99.90;;;;;;4938372;29;19926;-79
2023/03/20 08:18:05;;;;;;;;;;;11.90;99.90;;;;;;4935412;29;19922;-79
2023/03/20 08:20:32;;;;;;;;;;;12.30;99.90;;;;;;4947215;29;19949;-82
2023/03/20 08:23:00;;;;;;;;;;;12.40;99.90;;;;;;4939194;29;19961;-80
2023/03/20 08:25:31;;;;;;;;;;;12.60;99.90;;;;;;4942395;29;19930;-80
2023/03/20 08:27:58;;;;;;;;;;;12.80;99.90;;;;;;4938129;29;19939;-82
2023/03/20 08:30:25;;;;;;;;;;;12.80;99.90;;;;;;4939686;29;19955;-80
2023/03/20 08:32:53;;;;;;;;;;;12.90;99.90;;;;;;4938139;29;19927;-84
2023/03/20 08:35:42;;;;;;;;;;;12.90;99.90;;;;;;4940510;29;19923;-81
2023/03/20 08:38:13;;;;;;;;;;;12.80;99.90;;;;;;4952915;29;19938;-83
2023/03/20 08:40:41;;;;;;;;;;;12.90;99.90;;;;;;4938674;29;20376;-79
2023/03/20 08:43:08;;;;;;;;;;;12.80;99.90;;;;;;4941670;29;19961;-84
2023/03/20 08:45:35;;;;;;;;;;;12.80;99.90;;;;;;4944475;29;19933;-81
2023/03/20 08:48:03;;;;;;;;;;;12.70;99.90;;;;;;4939187;29;19930;-78
2023/03/20 08:50:31;;;;;;;;;;;12.60;99.90;;;;;;4943691;29;19933;-82
2023/03/20 08:52:58;;;;;;;;;;;12.50;99.90;;;;;;4946900;29;19926;-78
2023/03/20 08:55:26;;;;;;;;;;;12.40;99.90;;;;;;4939628;28;20299;-79
2023/03/20 08:57:56;;;;;;;;;;;12.40;99.90;;;;;;4935207;29;19986;-79
2023/03/20 09:00:23;;;;;;;;;;;12.30;99.90;;;;;;4938098;29;19973;-79
2023/03/20 09:02:51;;;;;;;;;;;12.20;99.90;;;;;;4936348;29;20344;-79
2023/03/20 09:05:18;;;;;;;;;;;12.10;99.90;;;;;;4937267;29;19927;-80
2023/03/20 09:07:45;;;;;;;;;;;12.10;99.90;;;;;;4929368;29;19927;-80
2023/03/20 09:10:13;;;;;;;;;;;12.10;99.90;;;;;;4941005;29;20440;-80
2023/03/20 09:12:42;;;;;;;;;;;12.10;99.90;;;;;;4938684;29;19973;-80
2023/03/20 09:15:09;;;;;;;;;;;12.20;99.90;;;;;;4936609;29;20302;-80
2023/03/20 09:17:36;;;;;;;;;;;12.30;99.90;;;;;;4936661;29;19926;-79
2023/03/20 09:20:04;;;;;;;;;;;12.40;99.90;;;;;;4936434;29;19923;-80
2023/03/20 09:22:31;;;;;;;;;;;12.40;99.90;;;;;;4938673;29;19950;-81
2023/03/20 09:25:01;;;;;;;;;;;12.40;99.90;;;;;;4935913;29;19927;-84
2023/03/20 09:27:27;;;;;;;;;;;12.60;99.90;;;;;;4944322;29;19923;-84
2023/03/20 09:29:56;;;;;;;;;;;12.60;99.90;;;;;;4945606;29;19947;-84
2023/03/20 09:32:23;;;;;;;;;;;12.60;99.90;;;;;;4943908;29;19926;-85
2023/03/20 09:34:51;;;;;;;;;;;12.70;99.90;;;;;;4944358;28;20260;-81
2023/03/20 09:37:18;;;;;;;;;;;12.70;99.90;;;;;;4944275;29;19927;-80
2023/03/20 09:39:45;;;;;;;;;;;12.70;99.90;;;;;;4942854;29;19945;-78
2023/03/20 09:42:20;;;;;;;;;;;12.60;99.90;;;;;;4942686;29;20274;-79
2023/03/20 09:44:54;;;;;;;;;;;12.60;99.90;;;;;;4941662;29;20010;-78
2023/03/20 09:47:25;;;;;;;;;;;12.60;99.90;;;;;;4948842;29;19933;-82
2023/03/20 09:49:57;;;;;;;;;;;12.50;99.90;;;;;;4945120;29;19933;-81
2023/03/20 09:52:26;;;;;;;;;;;12.60;99.90;;;;;;4945660;29;20665;-82
2023/03/20 09:54:56;;;;;;;;;;;12.60;99.90;;;;;;4944821;29;19922;-83
2023/03/20 09:57:25;;;;;;;;;;;12.70;99.90;;;;;;4945302;29;20541;-83
2023/03/20 09:59:55;;;;;;;;;;;12.70;99.90;;;;;;4940289;29;20321;-82
2023/03/20 10:02:29;;;;;;;;;;;12.80;99.90;;;;;;4944165;29;19986;-83
2023/03/20 10:04:56;;;;;;;;;;;12.90;99.90;;;;;;4950178;23;19923;-74
2023/03/20 10:07:23;;;;;;;;;;;13.00;99.90;;;;;;4949481;28;19926;-74
2023/03/20 10:09:50;;;;;;;;;;;13.00;99.90;;;;;;4952134;29;19926;-75
2023/03/20 10:12:26;;;;;;;;;;;13.00;99.90;;;;;;4951988;29;19926;-76
2023/03/20 10:14:57;;;;;;;;;;;13.00;99.90;;;;;;4946018;29;19926;-75
2023/03/20 10:17:32;;;;;;;;;;;13.00;99.90;;;;;;4950234;29;19938;-76
2023/03/20 10:20:02;;;;;;;;;;;13.10;99.90;;;;;;4953363;28;19933;-76
2023/03/20 10:22:32;;;;;;;;;;;13.10;99.90;;;;;;4948899;29;19930;-75
2023/03/20 10:25:03;;;;;;;;;;;13.20;99.90;;;;;;4947920;28;20344;-74
2023/03/20 10:27:33;;;;;;;;;;;13.30;99.90;;;;;;4935670;29;20362;-74
2023/03/20 10:30:08;;;;;;;;;;;13.30;99.90;;;;;;4950925;28;19926;-75
2023/03/20 10:32:38;;;;;;;;;;;13.30;99.90;;;;;;4942389;29;19931;-74
2023/03/20 10:35:17;;;;;;;;;;;13.30;99.90;;;;;;4950067;29;19934;-73
2023/03/20 10:37:48;;;;;;;;;;;13.40;99.90;;;;;;4951626;28;19923;-75
2023/03/20 10:40:22;;;;;;;;;;;13.50;99.90;;;;;;4950676;28;19930;-75
2023/03/20 10:42:50;;;;;;;;;;;13.50;99.90;;;;;;4933137;29;19926;-76
2023/03/20 10:45:22;;;;;;;;;;;13.60;99.90;;;;;;4949243;29;19933;-75
2023/03/20 10:47:51;;;;;;;;;;;13.70;99.90;;;;;;4949632;28;19952;-75
2023/03/20 10:50:19;;;;;;;;;;;13.80;99.90;;;;;;4949060;28;19922;-74
2023/03/20 10:52:47;;;;;;;;;;;13.80;99.90;;;;;;4947284;29;20559;-74
2023/03/20 10:55:16;;;;;;;;;;;13.80;99.90;;;;;;4944287;29;19926;-75
2023/03/20 10:57:47;;;;;;;;;;;13.70;99.90;;;;;;4949713;29;19967;-75
2023/03/20 11:00:15;;;;;;;;;;;13.70;99.90;;;;;;4956532;28;19983;-74
2023/03/20 11:02:41;;;;;;;;;;;13.60;99.90;;;;;;4954727;28;19926;-75
2023/03/20 11:05:20;;;;;;;;;;;13.60;99.90;;;;;;4944415;28;19927;-74
2023/03/20 11:07:47;;;;;;;;;;;13.50;99.90;;;;;;4951220;29;19968;-75
2023/03/20 11:10:15;;;;;;;;;;;13.40;99.90;;;;;;4949373;28;19927;-75
2023/03/20 11:12:42;;;;;;;;;;;13.40;99.90;;;;;;4929934;29;19922;-74
2023/03/20 11:15:15;;;;;;;;;;;13.40;99.90;;;;;;4949108;28;20016;-74
2023/03/20 11:17:42;;;;;;;;;;;13.40;99.90;;;;;;4934072;28;19923;-75
2023/03/20 11:20:10;;;;;;;;;;;13.40;99.90;;;;;;4947686;28;19941;-74
2023/03/20 11:22:40;;;;;;;;;;;13.50;99.90;;;;;;4949919;28;20311;-74
2023/03/20 11:25:22;;;;;;;;;;;13.60;99.90;;;;;;4927724;29;19937;-75
2023/03/20 11:27:48;;;;;;;;;;;13.80;99.90;;;;;;4949362;29;20251;-74
2023/03/20 11:30:16;;;;;;;;;;;13.80;99.90;;;;;;4948682;28;19937;-74
2023/03/20 11:32:46;;;;;;;;;;;14.00;99.90;;;;;;4949029;29;19926;-75
2023/03/20 11:35:18;;;;;;;;;;;14.20;99.90;;;;;;4948269;28;19922;-75
2023/03/20 11:37:47;;;;;;;;;;;14.40;99.90;;;;;;4950415;29;20506;-75
2023/03/20 11:40:16;;;;;;;;;;;14.40;99.90;;;;;;4954320;28;20383;-75
2023/03/20 11:42:52;;;;;;;;;;;14.40;99.90;;;;;;4933081;28;19926;-75
2023/03/20 11:45:19;;;;;;;;;;;14.50;99.90;;;;;;4949936;28;19989;-76
2023/03/20 11:47:49;;;;;;;;;;;14.40;99.90;;;;;;4933166;28;20347;-75
2023/03/20 11:50:25;;;;;;;;;;;14.20;99.90;;;;;;4949854;28;19977;-75
2023/03/20 11:52:53;;;;;;;;;;;14.10;99.90;;;;;;4951870;28;19978;-74
2023/03/20 11:55:24;;;;;;;;;;;13.60;99.90;;;;;;4956349;29;19926;-74
2023/03/20 11:57:51;;;;;;;;;;;13.50;99.90;;;;;;4944463;28;19929;-74
2023/03/20 12:00:20;;;;;;;;;;;13.20;99.90;;;;;;4949359;28;19926;-74
2023/03/20 12:02:47;;;;;;;;;;;13.10;99.90;;;;;;4933415;29;19969;-74
2023/03/20 12:05:27;;;;;;;;;;;13.00;99.90;;;;;;4930929;29;19922;-74
2023/03/20 12:07:57;;;;;;;;;;;12.80;99.90;;;;;;4926208;29;19927;-73
2023/03/20 12:10:24;;;;;;;;;;;12.80;99.90;;;;;;4944781;29;19922;-75
2023/03/20 12:12:54;;;;;;;;;;;12.80;99.90;;;;;;4942515;29;19961;-73
2023/03/20 12:15:22;;;;;;;;;;;12.80;99.90;;;;;;4955515;28;19926;-75
2023/03/20 12:17:53;;;;;;;;;;;12.80;99.90;;;;;;4953115;29;19927;-74
2023/03/20 12:20:24;;;;;;;;;;;12.80;99.90;;;;;;4933540;29;19926;-74
2023/03/20 12:22:54;;;;;;;;;;;12.80;99.90;;;;;;4935066;29;20025;-73
2023/03/20 12:25:24;;;;;;;;;;;12.80;99.90;;;;;;4934599;29;20392;-73
2023/03/20 12:27:55;;;;;;;;;;;12.80;99.90;;;;;;4931435;29;19922;-73
2023/03/20 12:30:25;;;;;;;;;;;13.10;99.90;;;;;;4949501;28;19934;-73
2023/03/20 12:32:56;;;;;;;;;;;13.10;99.90;;;;;;4931808;29;20418;-73
2023/03/20 12:35:26;;;;;;;;;;;13.30;99.90;;;;;;4949478;29;19933;-73
2023/03/20 12:37:52;;;;;;;;;;;13.50;99.90;;;;;;4949002;29;19933;-73
2023/03/20 12:40:24;;;;;;;;;;;13.80;99.90;;;;;;4950893;28;19922;-74
2023/03/20 12:42:59;;;;;;;;;;;13.80;99.90;;;;;;4950370;29;19930;-74
2023/03/20 12:45:28;;;;;;;;;;;13.90;99.90;;;;;;4949958;29;19926;-73
2023/03/20 12:48:04;;;;;;;;;;;14.20;99.90;;;;;;4951060;29;20119;-74
2023/03/20 12:50:32;;;;;;;;;;;14.30;99.90;;;;;;4950894;28;19989;-73
2023/03/20 12:53:09;;;;;;;;;;;14.30;99.90;;;;;;4949701;28;19973;-73
2023/03/20 12:55:42;;;;;;;;;;;14.20;99.90;;;;;;4947481;29;19923;-74
2023/03/20 12:58:17;;;;;;;;;;;14.20;99.90;;;;;;4935625;29;19933;-74
2023/03/20 13:00:48;;;;;;;;;;;14.10;99.90;;;;;;4956697;28;19922;-74
2023/03/20 13:03:34;;;;;;;;;;;14.20;99.90;;;;;;4940760;29;19989;-73
2023/03/20 13:06:03;;;;;;;;;;;14.20;99.90;;;;;;4951460;29;20729;-75
2023/03/20 13:08:38;;;;;;;;;;;14.30;99.90;;;;;;4953504;28;20004;-76
2023/03/20 13:11:09;;;;;;;;;;;14.00;99.90;;;;;;4955880;28;20655;-75
2023/03/20 13:13:42;;;;;;;;;;;14.00;99.90;;;;;;4953052;29;19930;-74
2023/03/20 13:16:14;;;;;;;;;;;14.00;99.90;;;;;;4952406;29;19973;-75
2023/03/20 13:18:47;;;;;;;;;;;13.90;99.90;;;;;;4953386;29;19930;-76
2023/03/20 13:21:17;;;;;;;;;;;13.90;99.90;;;;;;4936015;28;19988;-75
2023/03/20 13:23:46;;;;;;;;;;;13.80;99.90;;;;;;4946963;29;19973;-75
2023/03/20 13:26:21;;;;;;;;;;;13.90;99.90;;;;;;4947010;29;19923;-77
2023/03/20 13:28:54;;;;;;;;;;;13.90;99.90;;;;;;4951367;29;19933;-76
2023/03/20 13:31:27;;;;;;;;;;;14.00;99.90;;;;;;4952175;28;19989;-75
2023/03/20 13:33:59;;;;;;;;;;;14.10;99.90;;;;;;4956914;28;19929;-76
2023/03/20 13:36:33;;;;;;;;;;;14.20;99.90;;;;;;4951646;28;19930;-75
2023/03/20 13:39:03;;;;;;;;;;;14.20;99.90;;;;;;4952322;29;20380;-75
2023/03/20 13:41:30;;;;;;;;;;;14.20;99.90;;;;;;5461473;23;19941;-75
2023/03/20 13:44:00;;;;;;;;;;;16.40;99.90;;;;;;4971662;28;19937;-75
2023/03/20 13:46:28;;;;;;;;;;;14.10;99.90;;;;;;4974192;28;19933;-76
2023/03/20 13:48:57;;;;;;;;;;;14.00;99.90;;;;;;4971860;28;19922;-73
2023/03/20 13:51:27;;;;;;;;;;;14.20;99.90;;;;;;4972194;28;19956;-74
2023/03/20 13:53:57;;;;;;;;;;;14.10;99.90;;;;;;4978442;23;20043;-82
2023/03/20 13:56:32;;;;;;;;;;;14.10;99.90;;;;;;4950993;28;19923;-82
2023/03/20 13:59:06;;;;;;;;;;;14.00;99.90;;;;;;4935537;29;19986;-83
2023/03/20 14:01:41;;;;;;;;;;;14.00;99.90;;;;;;4935041;29;19927;-83
2023/03/20 14:04:13;;;;;;;;;;;13.80;99.90;;;;;;4949557;29;19978;-82
2023/03/20 14:06:45;;;;;;;;;;;13.60;99.90;;;;;;4942499;29;19947;-82
2023/03/20 14:09:25;;;;;;;;;;;13.60;99.90;;;;;;4949595;29;20386;-83
2023/03/20 14:11:53;;;;;;;;;;;13.60;99.90;;;;;;4949447;29;19923;-83
2023/03/20 14:14:25;;;;;;;;;;;13.60;99.90;;;;;;4951289;28;19953;-81
2023/03/20 14:17:00;;;;;;;;;;;13.60;99.90;;;;;;4948505;29;19939;-82
2023/03/20 14:19:29;;;;;;;;;;;13.50;99.90;;;;;;4950198;28;19927;-82
2023/03/20 14:21:56;;;;;;;;;;;13.40;99.90;;;;;;4949843;29;19923;-83
2023/03/20 14:24:26;;;;;;;;;;;13.40;99.90;;;;;;4947866;29;19923;-83
2023/03/20 14:26:56;;;;;;;;;;;13.40;99.90;;;;;;4937921;29;20484;-85
2023/03/20 14:29:35;;;;;;;;;;;13.30;99.90;;;;;;4942397;29;19988;-83
2023/03/20 14:32:03;;;;;;;;;;;13.30;99.90;;;;;;4934616;29;19958;-84
2023/03/20 14:34:45;;;;;;;;;;;13.30;99.90;;;;;;4947525;29;19985;-84
2023/03/20 14:37:27;;;;;;;;;;;13.20;99.90;;;;;;4947800;29;20357;-84
2023/03/20 14:39:59;;;;;;;;;;;13.40;99.90;;;;;;4942447;29;19954;-84
2023/03/20 14:42:35;;;;;;;;;;;13.40;99.90;;;;;;4953785;29;20362;-85
2023/03/20 14:45:20;;;;;;;;;;;13.40;99.90;;;;;;4946125;29;19927;-84
2023/03/20 14:47:52;;;;;;;;;;;13.50;99.90;;;;;;4942691;29;19930;-84